createdAt,value
2023-01-27T00:01:48.212Z,99688.31
2023-01-27T00:04:16.596Z,99683.38
2023-01-27T00:06:49.329Z,99684.22
2023-01-27T00:09:18.671Z,99554.06
2023-01-27T00:12:05.057Z,99637.66
2023-01-27T00:14:33.913Z,99688.69
2023-01-27T00:17:01.995Z,99688.69
2023-01-27T00:19:30.287Z,99684.50
2023-01-27T00:22:17.197Z,99518.84
2023-01-27T00:24:45.315Z,99695.97
2023-01-27T00:27:13.283Z,99656.31
2023-01-27T00:29:41.961Z,99698.50
2023-01-27T00:32:29.716Z,99703.81
2023-01-27T00:34:58.318Z,99703.03
2023-01-27T00:37:26.473Z,99714.34
2023-01-27T00:39:54.886Z,99689.00
2023-01-27T00:42:23.288Z,99711.03
2023-01-27T00:45:10.007Z,99662.03
2023-01-27T00:47:38.486Z,99710.09
2023-01-27T00:50:07.691Z,99706.00
2023-01-27T00:52:37.262Z,99712.00
2023-01-27T00:55:07.306Z,99705.72
2023-01-27T00:57:36.028Z,99705.88
2023-01-27T01:00:09.970Z,99708.56
2023-01-27T01:02:38.353Z,99687.47
2023-01-27T01:05:06.974Z,99662.97
2023-01-27T01:07:37.050Z,99699.97
2023-01-27T01:10:06.098Z,99701.63
2023-01-27T01:12:34.269Z,99702.50
2023-01-27T01:15:02.466Z,99699.81
2023-01-27T01:17:30.622Z,99707.56
2023-01-27T01:19:59.261Z,99693.03
2023-01-27T01:22:27.947Z,99650.00
2023-01-27T01:24:56.096Z,99717.94
2023-01-27T01:27:24.444Z,99713.66
2023-01-27T01:29:52.550Z,99674.53
2023-01-27T01:32:22.325Z,99717.75
2023-01-27T01:34:50.365Z,99721.25
2023-01-27T01:37:18.393Z,99710.09
2023-01-27T01:39:46.628Z,99728.91
2023-01-27T01:42:15.153Z,99720.13
2023-01-27T01:44:45.622Z,99724.66
2023-01-27T01:47:18.690Z,99706.66
2023-01-27T01:49:48.308Z,99704.09
2023-01-27T01:52:21.592Z,99729.72
2023-01-27T01:54:56.438Z,99726.34
2023-01-27T01:57:34.155Z,99719.28
2023-01-27T02:00:09.406Z,99672.94
2023-01-27T02:02:44.357Z,99672.06
2023-01-27T02:05:37.109Z,99730.59
2023-01-27T02:08:21.857Z,99723.81
2023-01-27T02:10:51.661Z,99726.22
2023-01-27T02:13:19.668Z,99727.91
2023-01-27T02:15:48.287Z,99720.41
2023-01-27T02:18:16.356Z,99723.09
2023-01-27T02:20:54.125Z,99676.50
2023-01-27T02:23:30.681Z,99731.94
2023-01-27T02:26:16.830Z,99722.28
2023-01-27T02:28:45.554Z,99663.84
2023-01-27T02:31:14.571Z,99706.00
2023-01-27T02:33:42.897Z,99704.41
2023-01-27T02:36:18.404Z,99651.81
2023-01-27T02:38:52.471Z,99692.31
2023-01-27T02:41:32.915Z,99691.56
2023-01-27T02:44:01.319Z,99672.94
2023-01-27T02:46:29.907Z,99658.75
2023-01-27T02:48:58.931Z,99669.69
2023-01-27T02:51:27.491Z,99676.59
2023-01-27T02:53:56.004Z,99690.22
2023-01-27T02:56:24.159Z,99640.38
2023-01-27T02:58:52.731Z,99679.59
2023-01-27T03:01:28.176Z,99698.34
2023-01-27T03:04:00.743Z,99694.25
2023-01-27T03:06:29.532Z,99692.66
2023-01-27T03:08:57.946Z,99557.16
2023-01-27T03:11:44.793Z,99696.16
2023-01-27T03:14:13.159Z,99698.00
2023-01-27T03:17:00.080Z,99703.91
2023-01-27T03:19:28.393Z,99695.38
2023-01-27T03:21:56.796Z,99651.63
2023-01-27T03:24:27.152Z,99694.41
2023-01-27T03:26:58.856Z,99698.22
2023-01-27T03:29:55.563Z,99646.75
2023-01-27T03:32:26.870Z,99708.03
2023-01-27T03:35:16.932Z,99683.03
2023-01-27T03:38:06.787Z,99668.47
2023-01-27T03:40:53.932Z,99690.78
2023-01-27T03:43:40.915Z,99696.38
2023-01-27T03:46:19.888Z,99703.16
2023-01-27T03:48:56.289Z,99653.75
2023-01-27T03:51:26.278Z,99712.34
2023-01-27T03:53:54.563Z,99659.53
2023-01-27T03:56:23.329Z,99703.72
2023-01-27T03:58:51.632Z,99674.16
2023-01-27T04:01:23.933Z,99640.28
2023-01-27T04:04:12.363Z,99699.56
2023-01-27T04:07:01.336Z,99701.53
2023-01-27T04:09:35.887Z,99658.69
2023-01-27T04:12:07.037Z,99655.16
2023-01-27T04:14:38.389Z,99715.63
2023-01-27T04:17:16.031Z,99714.09
2023-01-27T04:19:47.275Z,99675.41
2023-01-27T04:22:16.657Z,99707.88
2023-01-27T04:24:44.827Z,99724.97
2023-01-27T04:27:20.549Z,99669.03
2023-01-27T04:29:48.609Z,99719.19
2023-01-27T04:32:16.660Z,99687.69
2023-01-27T04:34:45.577Z,99715.94
2023-01-27T04:37:13.783Z,99729.72
2023-01-27T04:39:42.220Z,99734.84
2023-01-27T04:42:10.438Z,99735.75
2023-01-27T04:44:38.790Z,99732.31
2023-01-27T04:47:06.820Z,99738.34
2023-01-27T04:49:34.844Z,99734.84
2023-01-27T04:52:03.202Z,99736.53
2023-01-27T04:54:31.539Z,99730.72
2023-01-27T04:57:03.842Z,99675.50
2023-01-27T04:59:32.077Z,99692.53
2023-01-27T05:02:00.058Z,99742.59
2023-01-27T05:04:28.982Z,99751.16
2023-01-27T05:06:57.223Z,99746.72
2023-01-27T05:09:26.063Z,99669.50
2023-01-27T05:11:54.442Z,99751.88
2023-01-27T05:14:23.785Z,99744.22
2023-01-27T05:16:51.953Z,99689.91
2023-01-27T05:19:20.306Z,99749.19
2023-01-27T05:21:48.405Z,99749.19
2023-01-27T05:24:16.427Z,99760.19
2023-01-27T05:26:44.964Z,99765.34
2023-01-27T05:29:13.246Z,99765.34
2023-01-27T05:31:41.745Z,99767.88
2023-01-27T05:34:10.888Z,99777.44
2023-01-27T05:36:39.341Z,99734.13
2023-01-27T05:39:08.980Z,99776.34
2023-01-27T05:41:38.005Z,99775.53
2023-01-27T05:44:06.660Z,99778.94
2023-01-27T05:46:38.489Z,99723.84
2023-01-27T05:49:07.553Z,99775.72
2023-01-27T05:51:40.141Z,99773.03
2023-01-27T05:54:09.749Z,99712.94
2023-01-27T05:56:38.043Z,99724.88
2023-01-27T05:59:06.616Z,99763.91
2023-01-27T06:01:35.849Z,99773.19
2023-01-27T06:04:04.825Z,99780.31
2023-01-27T06:06:34.165Z,99741.31
2023-01-27T06:09:02.550Z,99778.31
2023-01-27T06:11:30.814Z,99751.34
2023-01-27T06:13:58.958Z,99723.53
2023-01-27T06:16:27.669Z,99784.00
2023-01-27T06:18:55.712Z,99782.41
2023-01-27T06:21:23.644Z,99742.03
2023-01-27T06:23:53.727Z,99794.53
2023-01-27T06:26:22.137Z,99799.78
2023-01-27T06:28:50.196Z,99802.31
2023-01-27T06:31:22.423Z,99779.31
2023-01-27T06:33:51.806Z,99801.41
2023-01-27T06:36:22.178Z,99796.97
2023-01-27T06:38:51.450Z,99795.53
2023-01-27T06:41:20.610Z,99799.00
2023-01-27T06:43:48.749Z,99778.44
2023-01-27T06:46:17.030Z,99733.78
2023-01-27T06:48:45.133Z,99804.44
2023-01-27T06:51:13.539Z,99809.56
2023-01-27T06:53:42.863Z,99813.00
2023-01-27T06:56:11.398Z,99810.59
2023-01-27T06:58:39.460Z,99789.41
2023-01-27T07:01:08.094Z,99812.22
2023-01-27T07:03:37.422Z,99813.94
2023-01-27T07:06:05.999Z,99816.31
2023-01-27T07:08:34.455Z,99826.53
2023-01-27T07:11:05.321Z,99771.97
2023-01-27T07:13:33.490Z,99831.19
2023-01-27T07:16:02.170Z,99781.88
2023-01-27T07:18:30.567Z,99835.00
2023-01-27T07:20:59.085Z,99838.97
2023-01-27T07:23:27.598Z,99847.66
2023-01-27T07:25:56.169Z,99849.16
2023-01-27T07:28:24.204Z,99792.91
2023-01-27T07:30:52.537Z,99835.78
2023-01-27T07:33:20.732Z,99790.16
2023-01-27T07:35:50.084Z,99862.00
2023-01-27T07:38:18.695Z,99804.84
2023-01-27T07:40:47.794Z,99855.72
2023-01-27T07:43:16.237Z,99863.06
2023-01-27T07:45:44.732Z,99817.06
2023-01-27T07:48:13.076Z,99793.38
2023-01-27T07:50:44.648Z,99841.69
2023-01-27T07:53:12.989Z,99859.56
2023-01-27T07:55:41.500Z,99846.28
2023-01-27T07:58:10.113Z,99805.53
2023-01-27T08:00:38.497Z,99841.66
2023-01-27T08:03:06.955Z,99839.75
2023-01-27T08:05:37.715Z,99847.03
2023-01-27T08:08:06.289Z,99771.41
2023-01-27T08:10:34.358Z,99825.41
2023-01-27T08:13:02.692Z,99823.94
2023-01-27T08:15:30.822Z,99838.00
2023-01-27T08:18:00.011Z,99811.47
2023-01-27T08:20:29.100Z,99787.50
2023-01-27T08:22:57.573Z,99839.97
2023-01-27T08:25:26.463Z,99839.19
2023-01-27T08:27:56.908Z,99784.47
2023-01-27T08:30:25.784Z,99790.16
2023-01-27T08:32:54.203Z,99766.66
2023-01-27T08:35:22.552Z,99812.72
2023-01-27T08:37:51.781Z,99819.91
2023-01-27T08:40:21.633Z,99823.59
2023-01-27T08:42:51.384Z,99832.13
2023-01-27T08:45:20.047Z,99740.50
2023-01-27T08:47:49.328Z,99795.72
2023-01-27T08:50:18.059Z,99810.81
2023-01-27T08:52:46.207Z,99831.53
2023-01-27T08:55:15.535Z,99830.91
2023-01-27T08:57:44.273Z,99773.94
2023-01-27T09:00:13.763Z,99821.75
2023-01-27T09:02:42.271Z,99824.84
2023-01-27T09:05:11.379Z,99786.09
2023-01-27T09:07:39.928Z,99782.88
2023-01-27T09:10:14.699Z,99824.16
2023-01-27T09:12:44.764Z,99768.06
2023-01-27T09:15:14.872Z,99802.19
2023-01-27T09:17:43.354Z,99799.03
2023-01-27T09:20:14.172Z,99745.47
2023-01-27T09:22:43.004Z,99758.38
2023-01-27T09:25:17.943Z,99745.66
2023-01-27T09:27:47.079Z,99775.72
2023-01-27T09:30:16.933Z,99775.56
2023-01-27T09:32:45.345Z,99764.69
2023-01-27T09:35:13.923Z,99714.66
2023-01-27T09:37:58.188Z,99701.44
2023-01-27T09:40:37.800Z,99606.66
2023-01-27T09:43:39.475Z,99761.34
2023-01-27T09:46:28.132Z,99714.88
2023-01-27T09:49:32.917Z,99762.81
2023-01-27T09:52:24.272Z,99756.19
2023-01-27T09:55:14.671Z,99762.22
2023-01-27T09:58:39.358Z,99757.38
2023-01-27T10:01:30.070Z,99739.81
2023-01-27T10:04:35.749Z,99740.59
2023-01-27T10:07:22.237Z,99753.22
2023-01-27T10:10:05.099Z,99752.06
2023-01-27T10:13:17.444Z,99744.22
2023-01-27T10:15:56.881Z,99747.34
2023-01-27T10:18:57.099Z,99731.13
2023-01-27T10:21:43.404Z,99747.75
2023-01-27T10:24:51.023Z,99732.50
2023-01-27T10:27:24.688Z,99747.41
2023-01-27T10:30:37.156Z,99735.91
2023-01-27T10:33:28.582Z,99728.00
2023-01-27T10:36:05.897Z,99735.09
2023-01-27T10:39:16.668Z,99727.88
2023-01-27T10:42:16.179Z,99721.88
2023-01-27T10:45:37.856Z,99665.75
2023-01-27T10:48:26.565Z,99740.28
2023-01-27T10:51:24.307Z,99729.13
2023-01-27T10:54:23.277Z,99729.81
2023-01-27T10:56:56.371Z,99737.56
2023-01-27T10:59:32.229Z,99691.63
2023-01-27T11:02:10.097Z,99738.00
2023-01-27T11:04:51.814Z,99742.19
2023-01-27T11:07:22.403Z,99723.47
2023-01-27T11:09:53.926Z,99723.88
2023-01-27T11:12:35.912Z,99722.84
2023-01-27T11:15:34.177Z,99718.72
2023-01-27T11:18:10.837Z,99709.09
2023-01-27T11:20:55.504Z,99641.72
2023-01-27T11:23:49.099Z,99646.94
2023-01-27T11:26:44.964Z,99699.88
2023-01-27T11:29:39.892Z,99703.78
2023-01-27T11:32:50.567Z,99690.88
2023-01-27T11:35:18.728Z,99700.19
2023-01-27T11:37:53.712Z,99666.19
2023-01-27T11:40:42.463Z,99663.78
2023-01-27T11:43:22.017Z,99666.03
2023-01-27T11:45:52.914Z,99695.16
2023-01-27T11:48:23.429Z,99698.09
2023-01-27T11:50:52.932Z,99651.78
2023-01-27T11:53:36.941Z,99650.41
2023-01-27T11:56:15.991Z,99683.63
2023-01-27T11:59:02.293Z,99679.69
2023-01-27T12:02:02.577Z,99673.09
2023-01-27T12:04:55.891Z,99656.78
2023-01-27T12:08:00.301Z,99669.84
2023-01-27T12:10:36.901Z,99666.09
2023-01-27T12:13:24.924Z,99613.38
2023-01-27T12:16:02.894Z,99662.47
2023-01-27T12:18:36.505Z,99659.22
2023-01-27T12:21:09.184Z,99608.41
2023-01-27T12:23:47.537Z,99643.19
2023-01-27T12:26:37.526Z,99646.66
2023-01-27T12:29:16.972Z,99608.94
2023-01-27T12:31:49.628Z,99642.63
2023-01-27T12:34:37.636Z,99662.19
2023-01-27T12:37:07.893Z,99650.63
2023-01-27T12:39:50.555Z,99662.41
2023-01-27T12:42:38.981Z,99664.09
2023-01-27T12:45:26.991Z,99601.34
2023-01-27T12:48:21.826Z,99664.53
2023-01-27T12:50:55.814Z,99672.94
2023-01-27T12:53:27.991Z,99617.09
2023-01-27T12:56:12.486Z,99585.94
2023-01-27T12:58:56.773Z,99668.31
2023-01-27T13:01:38.575Z,99657.84
2023-01-27T13:04:20.278Z,99624.72
2023-01-27T13:07:01.864Z,99680.72
2023-01-27T13:09:35.493Z,99673.09
2023-01-27T13:12:28.648Z,99620.72
2023-01-27T13:15:06.115Z,99676.63
2023-01-27T13:17:46.376Z,99624.78
2023-01-27T13:20:38.023Z,99670.38
2023-01-27T13:23:20.488Z,99664.63
2023-01-27T13:26:26.331Z,99651.09
2023-01-27T13:29:06.091Z,99615.56
2023-01-27T13:31:46.359Z,99677.88
2023-01-27T13:34:39.072Z,99639.63
2023-01-27T13:37:17.263Z,99683.41
2023-01-27T13:40:05.267Z,99623.25
2023-01-27T13:42:40.282Z,99681.19
2023-01-27T13:45:21.836Z,99681.72
2023-01-27T13:48:22.624Z,99661.09
2023-01-27T13:50:59.389Z,99695.13
2023-01-27T13:53:27.839Z,99689.91
2023-01-27T13:56:36.355Z,99682.94
2023-01-27T13:59:04.880Z,99688.19
2023-01-27T14:02:23.230Z,99703.25
2023-01-27T14:05:44.748Z,99713.03
2023-01-27T14:08:16.001Z,99678.03
2023-01-27T14:11:11.513Z,99688.03
2023-01-27T14:14:02.935Z,99652.50
2023-01-27T14:17:04.635Z,99689.91
2023-01-27T14:20:18.785Z,99694.28
2023-01-27T14:23:14.609Z,99689.41
2023-01-27T14:26:15.348Z,99674.81
2023-01-27T14:29:05.761Z,99634.47
2023-01-27T14:31:48.083Z,99522.91
2023-01-27T14:34:45.432Z,99697.72
2023-01-27T14:37:44.455Z,99697.88
2023-01-27T14:40:57.838Z,99701.25
2023-01-27T14:43:58.960Z,99704.66
2023-01-27T14:47:09.294Z,99701.34
2023-01-27T14:50:22.695Z,99679.09
2023-01-27T14:53:35.057Z,99697.88
2023-01-27T14:56:29.770Z,99691.78
2023-01-27T14:59:44.238Z,99693.50
2023-01-27T15:02:46.798Z,99707.03
2023-01-27T15:05:31.873Z,99696.25
2023-01-27T15:08:33.065Z,99696.47
2023-01-27T15:11:31.027Z,99694.34
2023-01-27T15:14:40.802Z,99690.19
2023-01-27T15:18:09.498Z,99622.53
2023-01-27T15:21:08.713Z,99641.78
2023-01-27T15:24:04.416Z,99661.63
2023-01-27T15:26:36.108Z,99635.53
2023-01-27T15:29:05.508Z,99690.00
2023-01-27T15:31:33.933Z,99699.56
2023-01-27T15:34:05.104Z,99698.91
2023-01-27T15:36:38.783Z,99684.47
2023-01-27T15:39:10.561Z,99683.53
2023-01-27T15:42:03.327Z,99685.53
2023-01-27T15:44:34.249Z,99686.03
2023-01-27T15:47:14.843Z,99678.44
2023-01-27T15:49:48.947Z,99701.78
2023-01-27T15:52:49.801Z,99695.44
2023-01-27T15:55:31.003Z,99640.91
2023-01-27T15:58:50.321Z,99711.97
2023-01-27T16:01:31.631Z,99706.97
2023-01-27T16:04:12.354Z,99716.00
2023-01-27T16:07:02.631Z,99660.81
2023-01-27T16:09:49.031Z,99708.31
2023-01-27T16:12:23.431Z,99718.88
2023-01-27T16:15:31.477Z,99708.44
2023-01-27T16:18:02.788Z,99712.69
2023-01-27T16:20:51.198Z,99668.84
2023-01-27T16:23:51.722Z,99714.38
2023-01-27T16:26:42.738Z,99715.38
2023-01-27T16:29:37.565Z,99719.47
2023-01-27T16:32:22.377Z,99696.72
2023-01-27T16:34:56.719Z,99719.66
2023-01-27T16:37:33.115Z,99721.66
2023-01-27T16:40:17.198Z,99714.19
2023-01-27T16:42:54.486Z,99662.28
2023-01-27T16:45:30.971Z,99677.09
2023-01-27T16:48:16.321Z,99665.88
2023-01-27T16:50:45.640Z,99659.22
2023-01-27T16:53:24.558Z,99701.69
2023-01-27T16:56:22.997Z,99726.88
2023-01-27T16:59:00.193Z,99704.94
2023-01-27T17:01:43.358Z,99732.25
2023-01-27T17:04:26.679Z,99731.19
2023-01-27T17:07:11.740Z,99719.34
2023-01-27T17:09:53.945Z,99737.16
2023-01-27T17:12:36.818Z,99726.16
2023-01-27T17:15:22.248Z,99734.72
2023-01-27T17:17:52.800Z,99746.50
2023-01-27T17:20:36.009Z,99732.03
2023-01-27T17:23:06.336Z,99735.16
2023-01-27T17:25:38.077Z,99679.94
2023-01-27T17:28:17.342Z,99722.13
2023-01-27T17:30:47.230Z,99731.19
2023-01-27T17:33:21.961Z,99740.78
2023-01-27T17:35:59.173Z,99725.41
2023-01-27T17:38:51.977Z,99743.88
2023-01-27T17:41:37.576Z,99695.75
2023-01-27T17:44:15.710Z,99699.91
2023-01-27T17:46:45.507Z,99740.56
2023-01-27T17:49:18.970Z,99706.06
2023-01-27T17:51:55.921Z,99749.06
2023-01-27T17:54:35.803Z,99714.28
2023-01-27T17:57:24.751Z,99755.25
2023-01-27T18:00:37.618Z,99746.88
2023-01-27T18:03:17.413Z,99753.84
2023-01-27T18:05:49.628Z,99761.19
2023-01-27T18:08:19.738Z,99646.94
2023-01-27T18:10:48.520Z,99747.69
2023-01-27T18:13:19.693Z,99757.88
2023-01-27T18:16:19.041Z,99770.56
2023-01-27T18:18:50.015Z,99709.44
2023-01-27T18:21:27.606Z,99744.03
2023-01-27T18:24:03.065Z,99758.59
2023-01-27T18:26:43.815Z,99773.69
2023-01-27T18:29:27.808Z,99774.50
2023-01-27T18:32:19.949Z,99634.88
2023-01-27T18:34:55.168Z,99732.81
2023-01-27T18:37:28.798Z,99782.88
2023-01-27T18:40:05.834Z,99753.94
2023-01-27T18:42:34.858Z,99772.63
2023-01-27T18:45:03.769Z,99776.81
2023-01-27T18:47:37.974Z,99768.47
2023-01-27T18:50:20.114Z,99776.94
2023-01-27T18:52:50.474Z,99756.59
2023-01-27T18:55:29.327Z,99799.97
2023-01-27T18:58:00.424Z,99784.41
2023-01-27T19:00:52.912Z,99749.91
2023-01-27T19:03:25.484Z,99796.44
2023-01-27T19:05:55.384Z,99788.03
2023-01-27T19:08:25.530Z,99799.19
2023-01-27T19:10:55.071Z,99782.19
2023-01-27T19:13:24.572Z,99794.69
2023-01-27T19:15:58.948Z,99797.44
2023-01-27T19:18:36.084Z,99758.50
2023-01-27T19:21:06.440Z,99748.25
2023-01-27T19:23:35.829Z,99786.28
2023-01-27T19:26:11.989Z,99785.56
2023-01-27T19:28:41.501Z,99786.41
2023-01-27T19:31:11.336Z,99814.88
2023-01-27T19:33:45.549Z,99740.06
2023-01-27T19:36:43.519Z,99818.06
2023-01-27T19:39:25.199Z,99765.66
2023-01-27T19:41:58.550Z,99743.81
2023-01-27T19:44:32.130Z,99817.56
2023-01-27T19:47:05.305Z,99821.69
2023-01-27T19:49:37.618Z,99762.31
2023-01-27T19:52:09.456Z,99788.88
2023-01-27T19:54:38.762Z,99816.63
2023-01-27T19:57:16.061Z,99820.31
2023-01-27T19:59:45.992Z,99818.34
2023-01-27T20:02:15.051Z,99823.63
2023-01-27T20:04:44.105Z,99819.56
2023-01-27T20:07:14.264Z,99773.00
2023-01-27T20:09:43.952Z,99820.53
2023-01-27T20:12:16.651Z,99757.78
2023-01-27T20:14:46.007Z,99825.53
2023-01-27T20:17:15.559Z,99827.38
2023-01-27T20:19:48.179Z,99793.75
2023-01-27T20:22:17.357Z,99779.97
2023-01-27T20:24:46.164Z,99819.88
2023-01-27T20:27:15.300Z,99819.16
2023-01-27T20:29:46.343Z,99846.72
2023-01-27T20:32:16.494Z,99831.69
2023-01-27T20:34:46.224Z,99833.31
2023-01-27T20:37:15.022Z,99829.22
2023-01-27T20:39:44.323Z,99820.75
2023-01-27T20:42:13.530Z,99828.22
2023-01-27T20:44:42.699Z,99825.41
2023-01-27T20:47:13.734Z,99826.69
2023-01-27T20:49:44.613Z,99827.31
2023-01-27T20:52:13.956Z,99800.56
2023-01-27T20:54:42.805Z,99828.44
2023-01-27T20:57:11.901Z,99809.91
2023-01-27T20:59:42.598Z,99835.41
2023-01-27T21:02:13.585Z,99834.63
2023-01-27T21:04:43.213Z,99828.66
2023-01-27T21:07:14.243Z,99843.91
2023-01-27T21:09:44.264Z,99836.50
2023-01-27T21:12:13.925Z,99793.09
2023-01-27T21:14:43.427Z,99844.25
2023-01-27T21:17:12.840Z,99851.16
2023-01-27T21:19:42.401Z,99853.06
2023-01-27T21:22:11.004Z,99841.44
2023-01-27T21:24:41.281Z,99848.16
2023-01-27T21:27:14.383Z,99831.31
2023-01-27T21:29:44.428Z,99789.72
2023-01-27T21:32:13.545Z,99778.47
2023-01-27T21:34:42.640Z,99793.25
2023-01-27T21:37:11.261Z,99827.22
2023-01-27T21:39:40.824Z,99799.69
2023-01-27T21:42:18.633Z,99842.13
2023-01-27T21:45:06.309Z,99845.75
2023-01-27T21:47:35.472Z,99837.38
2023-01-27T21:50:07.152Z,99849.97
2023-01-27T21:52:51.057Z,99847.44
2023-01-27T21:55:24.546Z,99847.66
2023-01-27T21:57:56.073Z,99846.88
2023-01-27T22:00:29.912Z,99852.94
2023-01-27T22:03:03.450Z,99801.13
2023-01-27T22:05:34.161Z,99852.66
2023-01-27T22:08:03.393Z,99854.34
2023-01-27T22:10:32.987Z,99804.44
2023-01-27T22:13:04.229Z,99789.97
2023-01-27T22:15:33.229Z,99689.38
2023-01-27T22:18:02.213Z,99858.69
2023-01-27T22:20:30.731Z,99855.44
2023-01-27T22:23:00.413Z,99849.56
2023-01-27T22:25:31.553Z,99845.31
2023-01-27T22:28:04.052Z,99853.78
2023-01-27T22:30:33.046Z,99856.22
2023-01-27T22:33:02.387Z,99865.94
2023-01-27T22:35:31.872Z,99859.72
2023-01-27T22:38:03.189Z,99797.94
2023-01-27T22:40:32.712Z,99852.34
2023-01-27T22:43:01.688Z,99824.38
2023-01-27T22:45:30.339Z,99854.72
2023-01-27T22:47:59.278Z,99791.59
2023-01-27T22:50:28.059Z,99852.16
2023-01-27T22:52:57.547Z,99834.06
2023-01-27T22:55:27.644Z,99839.28
2023-01-27T22:57:57.240Z,99844.38
2023-01-27T23:00:25.941Z,99831.44
2023-01-27T23:02:54.827Z,99800.31
2023-01-27T23:05:23.668Z,99831.81
2023-01-27T23:07:52.297Z,99830.75
2023-01-27T23:10:21.131Z,99811.25
2023-01-27T23:12:51.159Z,99828.06
2023-01-27T23:15:19.315Z,99787.34
2023-01-27T23:17:49.556Z,99830.88
2023-01-27T23:20:18.177Z,99821.53
2023-01-27T23:22:46.423Z,99766.09
2023-01-27T23:25:15.752Z,99822.81
2023-01-27T23:27:44.145Z,99803.91
2023-01-27T23:30:12.767Z,99791.63
2023-01-27T23:32:41.173Z,99789.38
2023-01-27T23:35:10.299Z,99802.38
2023-01-27T23:37:38.632Z,99800.47
2023-01-27T23:40:08.343Z,99806.41
2023-01-27T23:42:37.128Z,99806.31
2023-01-27T23:45:05.941Z,99798.75
2023-01-27T23:47:34.720Z,99798.75
2023-01-27T23:50:03.842Z,99816.06
2023-01-27T23:52:36.193Z,99796.22
2023-01-27T23:55:06.835Z,99795.44
2023-01-27T23:57:35.104Z,99757.97
